createdAt,value
2023-08-29T00:00:12.451Z,28.71
2023-08-29T00:05:09.129Z,28.62
2023-08-29T00:10:02.973Z,28.47
2023-08-29T00:14:57.549Z,28.19
2023-08-29T00:19:52.227Z,28.18
2023-08-29T00:24:45.854Z,28.03
2023-08-29T00:29:39.042Z,27.97
2023-08-29T00:34:33.709Z,27.92
2023-08-29T00:39:28.320Z,27.78
2023-08-29T00:44:21.499Z,27.48
2023-08-29T00:49:19.667Z,27.59
2023-08-29T00:54:13.380Z,27.54
2023-08-29T00:59:08.093Z,27.53
2023-08-29T01:04:02.243Z,27.37
2023-08-29T01:08:55.903Z,27.40
2023-08-29T01:13:56.516Z,27.38
2023-08-29T01:18:53.887Z,27.42
2023-08-29T01:23:56.344Z,27.42
2023-08-29T01:28:51.847Z,27.42
2023-08-29T01:33:45.537Z,27.37
2023-08-29T01:38:38.760Z,27.45
2023-08-29T01:43:32.133Z,27.38
2023-08-29T01:48:26.837Z,27.31
2023-08-29T01:53:20.267Z,27.20
2023-08-29T01:58:15.695Z,27.16
2023-08-29T02:03:09.806Z,27.09
2023-08-29T02:08:04.993Z,26.93
2023-08-29T02:12:58.645Z,26.87
2023-08-29T02:17:52.464Z,26.81
2023-08-29T02:22:45.655Z,26.44
2023-08-29T02:27:40.742Z,26.76
2023-08-29T02:32:36.204Z,26.76
2023-08-29T02:37:29.615Z,26.84
2023-08-29T02:42:24.623Z,26.87
2023-08-29T02:47:19.676Z,26.90
2023-08-29T02:52:13.016Z,26.92
2023-08-29T02:57:06.632Z,26.91
2023-08-29T03:02:01.691Z,26.98
2023-08-29T03:06:56.462Z,27.08
2023-08-29T03:11:50.641Z,27.11
2023-08-29T03:16:44.122Z,27.18
2023-08-29T03:21:40.624Z,27.05
2023-08-29T03:26:35.358Z,27.30
2023-08-29T03:31:29.286Z,27.16
2023-08-29T03:36:22.584Z,27.39
2023-08-29T03:41:15.847Z,27.39
2023-08-29T03:46:11.278Z,27.48
2023-08-29T03:51:07.763Z,27.40
2023-08-29T03:56:03.825Z,27.28
2023-08-29T04:00:58.321Z,27.31
2023-08-29T04:05:53.220Z,27.21
2023-08-29T04:10:46.538Z,27.21
2023-08-29T04:15:39.888Z,27.15
2023-08-29T04:20:33.459Z,27.26
2023-08-29T04:25:28.413Z,27.19
2023-08-29T04:30:21.877Z,27.44
2023-08-29T04:35:15.187Z,27.28
2023-08-29T04:40:11.648Z,27.57
2023-08-29T04:45:07.400Z,27.58
2023-08-29T04:50:01.857Z,27.75
2023-08-29T04:54:55.142Z,27.80
2023-08-29T04:59:48.360Z,27.98
2023-08-29T05:04:44.183Z,28.09
2023-08-29T05:09:37.507Z,28.10
2023-08-29T05:14:31.312Z,28.26
2023-08-29T05:19:25.090Z,28.33
2023-08-29T05:24:19.756Z,28.45
2023-08-29T05:29:12.890Z,28.58
2023-08-29T05:34:06.240Z,28.68
2023-08-29T05:39:00.560Z,28.88
2023-08-29T05:43:56.261Z,28.99
2023-08-29T05:48:49.565Z,29.09
2023-08-29T05:53:43.267Z,29.40
2023-08-29T05:58:36.989Z,29.72
2023-08-29T06:03:31.858Z,29.90
2023-08-29T06:08:25.664Z,30.16
2023-08-29T06:13:19.509Z,30.32
2023-08-29T06:18:12.811Z,30.66
2023-08-29T06:23:08.511Z,30.80
2023-08-29T06:28:01.713Z,31.08
2023-08-29T06:32:55.619Z,31.26
2023-08-29T06:37:48.921Z,31.46
2023-08-29T06:42:43.980Z,31.68
2023-08-29T06:47:37.166Z,31.86
2023-08-29T06:52:30.248Z,32.11
2023-08-29T06:57:23.337Z,32.34
2023-08-29T07:02:17.942Z,32.00
2023-08-29T07:07:11.044Z,32.74
2023-08-29T07:12:04.188Z,32.80
2023-08-29T07:17:09.502Z,33.00
2023-08-29T07:22:17.472Z,33.20
2023-08-29T07:27:16.926Z,33.35
2023-08-29T07:32:10.225Z,33.51
2023-08-29T07:37:05.610Z,33.79
2023-08-29T07:42:01.052Z,33.93
2023-08-29T07:47:12.111Z,34.13
2023-08-29T07:52:07.911Z,34.27
2023-08-29T07:57:02.852Z,34.38
2023-08-29T08:01:56.149Z,34.43
2023-08-29T08:06:49.320Z,34.62
2023-08-29T08:11:42.573Z,34.66
2023-08-29T08:16:40.413Z,35.02
2023-08-29T08:21:33.629Z,35.18
2023-08-29T08:26:26.962Z,35.06
2023-08-29T08:31:20.360Z,35.54
2023-08-29T08:36:15.007Z,36.02
2023-08-29T08:41:08.522Z,36.96
2023-08-29T08:46:02.204Z,38.08
2023-08-29T08:50:57.034Z,39.01
2023-08-29T08:55:52.042Z,39.60
2023-08-29T09:00:45.414Z,40.10
2023-08-29T09:05:38.579Z,40.31
2023-08-29T09:10:34.928Z,40.43
2023-08-29T09:15:29.704Z,40.32
2023-08-29T09:20:25.370Z,40.33
2023-08-29T09:25:18.854Z,39.53
2023-08-29T09:30:16.009Z,39.90
2023-08-29T09:35:14.459Z,39.64
2023-08-29T09:40:25.762Z,38.99
2023-08-29T09:45:24.417Z,39.05
2023-08-29T09:50:19.551Z,38.78
2023-08-29T09:55:16.232Z,38.74
2023-08-29T10:00:14.000Z,38.72
2023-08-29T10:05:11.855Z,38.10
2023-08-29T10:10:09.647Z,38.76
2023-08-29T10:15:05.256Z,38.83
2023-08-29T10:20:01.760Z,38.39
2023-08-29T10:24:56.367Z,39.16
2023-08-29T10:29:51.369Z,39.15
2023-08-29T10:34:44.645Z,39.29
2023-08-29T10:39:37.872Z,39.48
2023-08-29T10:44:45.314Z,39.80
2023-08-29T10:49:46.241Z,40.00
2023-08-29T10:54:40.139Z,40.48
2023-08-29T10:59:35.532Z,40.95
2023-08-29T11:04:33.246Z,41.43
2023-08-29T11:09:30.740Z,42.05
2023-08-29T11:14:24.184Z,42.84
2023-08-29T11:19:20.199Z,43.27
2023-08-29T11:24:16.789Z,43.38
2023-08-29T11:29:12.281Z,43.82
2023-08-29T11:34:05.830Z,44.23
2023-08-29T11:38:59.747Z,44.59
2023-08-29T11:44:16.955Z,44.86
2023-08-29T11:49:15.806Z,45.38
2023-08-29T11:54:43.735Z,45.80
2023-08-29T11:59:40.801Z,45.85
2023-08-29T12:04:35.397Z,45.97
2023-08-29T12:09:29.125Z,45.84
2023-08-29T12:14:25.973Z,45.62
2023-08-29T12:19:19.760Z,45.70
2023-08-29T12:24:15.712Z,45.50
2023-08-29T12:29:08.897Z,45.91
2023-08-29T12:34:02.880Z,46.14
2023-08-29T12:38:56.816Z,45.51
2023-08-29T12:43:51.514Z,45.28
2023-08-29T12:48:44.950Z,45.44
2023-08-29T12:53:38.467Z,45.99
2023-08-29T12:58:31.678Z,46.12
2023-08-29T13:03:26.768Z,46.36
2023-08-29T13:08:20.822Z,46.55
2023-08-29T13:13:14.133Z,46.62
2023-08-29T13:18:07.808Z,46.53
2023-08-29T13:23:03.201Z,46.60
2023-08-29T13:27:56.992Z,46.54
2023-08-29T13:32:50.790Z,45.87
2023-08-29T13:37:45.321Z,44.05
2023-08-29T13:42:40.010Z,43.25
2023-08-29T13:47:33.644Z,43.29
2023-08-29T13:52:26.905Z,43.38
2023-08-29T13:57:20.168Z,43.71
2023-08-29T14:02:14.984Z,43.84
2023-08-29T14:07:11.573Z,43.84
2023-08-29T14:12:05.223Z,44.62
2023-08-29T14:16:58.476Z,44.50
2023-08-29T14:21:53.143Z,44.47
2023-08-29T14:26:47.067Z,44.44
2023-08-29T14:31:40.416Z,44.53
2023-08-29T14:36:33.893Z,44.52
2023-08-29T14:41:28.716Z,44.54
2023-08-29T14:46:22.177Z,43.96
2023-08-29T14:51:15.853Z,43.27
2023-08-29T14:56:09.113Z,42.49
2023-08-29T15:01:04.016Z,41.87
2023-08-29T15:05:58.306Z,41.86
2023-08-29T15:10:52.315Z,42.12
2023-08-29T15:15:45.779Z,41.26
2023-08-29T15:20:42.807Z,40.92
2023-08-29T15:25:36.581Z,40.01
2023-08-29T15:30:29.769Z,39.33
2023-08-29T15:35:23.031Z,38.80
2023-08-29T15:40:17.722Z,38.34
2023-08-29T15:45:11.690Z,38.05
2023-08-29T15:50:05.229Z,37.83
2023-08-29T15:54:58.566Z,37.56
2023-08-29T15:59:54.250Z,36.69
2023-08-29T16:04:47.545Z,36.94
2023-08-29T16:09:40.856Z,36.98
2023-08-29T16:14:34.064Z,36.84
2023-08-29T16:19:29.165Z,36.75
2023-08-29T16:24:22.357Z,36.58
2023-08-29T16:29:16.023Z,36.34
2023-08-29T16:34:09.553Z,36.32
2023-08-29T16:39:04.602Z,36.27
2023-08-29T16:43:58.063Z,36.13
2023-08-29T16:48:51.354Z,35.97
2023-08-29T16:53:44.784Z,35.84
2023-08-29T16:58:39.586Z,35.64
2023-08-29T17:03:33.016Z,35.56
2023-08-29T17:08:26.693Z,35.45
2023-08-29T17:13:20.011Z,35.36
2023-08-29T17:18:14.727Z,35.12
2023-08-29T17:23:09.493Z,35.07
2023-08-29T17:28:02.748Z,34.82
2023-08-29T17:32:56.029Z,34.81
2023-08-29T17:37:50.711Z,34.79
2023-08-29T17:42:44.630Z,34.65
2023-08-29T17:47:38.240Z,34.51
2023-08-29T17:52:32.281Z,34.37
2023-08-29T17:57:26.903Z,34.33
2023-08-29T18:02:20.187Z,34.15
2023-08-29T18:07:14.744Z,34.10
2023-08-29T18:12:11.205Z,34.03
2023-08-29T18:17:06.000Z,33.94
2023-08-29T18:21:59.230Z,33.85
2023-08-29T18:26:52.493Z,33.63
2023-08-29T18:31:45.713Z,33.66
2023-08-29T18:36:40.404Z,33.56
2023-08-29T18:41:33.782Z,33.49
2023-08-29T18:46:26.993Z,33.45
2023-08-29T18:51:20.433Z,33.22
2023-08-29T18:56:18.148Z,33.22
2023-08-29T19:01:12.013Z,33.15
2023-08-29T19:06:09.006Z,32.99
2023-08-29T19:11:06.226Z,32.92
2023-08-29T19:16:01.420Z,32.86
2023-08-29T19:20:54.920Z,32.78
2023-08-29T19:25:48.528Z,32.69
2023-08-29T19:30:41.948Z,32.70
2023-08-29T19:35:39.193Z,32.58
2023-08-29T19:40:33.000Z,32.49
2023-08-29T19:45:27.264Z,32.41
2023-08-29T19:50:20.682Z,32.37
2023-08-29T19:55:15.581Z,32.29
2023-08-29T20:00:10.867Z,32.15
2023-08-29T20:05:07.162Z,31.43
2023-08-29T20:10:01.179Z,31.97
2023-08-29T20:14:55.925Z,31.90
2023-08-29T20:19:49.199Z,31.78
2023-08-29T20:24:42.422Z,31.75
2023-08-29T20:29:35.777Z,31.62
2023-08-29T20:34:30.514Z,31.55
2023-08-29T20:39:23.786Z,31.48
2023-08-29T20:44:17.883Z,31.43
2023-08-29T20:49:13.168Z,31.31
2023-08-29T20:54:08.680Z,31.20
2023-08-29T20:59:02.508Z,31.11
2023-08-29T21:03:55.881Z,31.10
2023-08-29T21:08:49.208Z,30.97
2023-08-29T21:13:43.801Z,30.98
2023-08-29T21:18:37.396Z,30.86
2023-08-29T21:23:31.065Z,30.86
2023-08-29T21:28:25.409Z,30.66
2023-08-29T21:33:20.312Z,30.69
2023-08-29T21:38:13.992Z,30.55
2023-08-29T21:43:08.949Z,30.67
2023-08-29T21:48:03.033Z,30.56
2023-08-29T21:52:58.959Z,30.58
2023-08-29T21:57:52.140Z,30.51
2023-08-29T22:02:45.444Z,30.39
2023-08-29T22:07:39.410Z,30.51
2023-08-29T22:12:34.045Z,30.39
2023-08-29T22:17:27.457Z,30.37
2023-08-29T22:22:20.805Z,30.19
2023-08-29T22:27:14.139Z,30.04
2023-08-29T22:32:10.237Z,30.21
2023-08-29T22:37:05.502Z,30.20
2023-08-29T22:41:58.718Z,30.16
2023-08-29T22:46:52.062Z,30.12
2023-08-29T22:51:47.211Z,29.95
2023-08-29T22:56:40.542Z,29.99
2023-08-29T23:01:33.887Z,29.84
2023-08-29T23:06:27.197Z,29.89
2023-08-29T23:11:21.900Z,29.87
2023-08-29T23:16:17.330Z,29.78
2023-08-29T23:21:10.866Z,29.54
2023-08-29T23:26:05.661Z,29.82
2023-08-29T23:31:00.438Z,29.75
2023-08-29T23:35:53.636Z,29.71
2023-08-29T23:40:49.327Z,29.61
2023-08-29T23:45:42.583Z,29.53
2023-08-29T23:50:37.189Z,29.58
2023-08-29T23:55:30.394Z,29.59
